This is the latest recevied weather packets stored in our database for station/object NC4M. If no packets are shown the sender has not sent any weather packets the latest 10 day(s).
| Time | Temp. | Humidity | Pressure | Rain* | Wind** | Luminosity | Snow |
|---|---|---|---|---|---|---|---|
| 1777821739 | 17.22° C | 44% | 1018.3 hPa | 0 mm | - | 291 W/m² | - |
| 1777821436 | 17.22° C | 46% | 1018.3 hPa | 0 mm | - | 241 W/m² | - |
| 1777821133 | 17.22° C | 47% | 1018.4 hPa | 0 mm | - | 171 W/m² | - |
| 1777820830 | 17.22° C | 44% | 1018.3 hPa | 0 mm | - | 61 W/m² | - |
| 1777820223 | 16.11° C | 48% | 1018.4 hPa | 0 mm | - | 70 W/m² | - |
| 1777819920 | 16.11° C | 46% | 1018.5 hPa | 0 mm | - | 57 W/m² | - |
| 1777818709 | 15.56° C | 50% | 1018.7 hPa | 0 mm | - | 51 W/m² | - |
| 1777816587 | 13.89° C | 60% | 1018.9 hPa | 0 mm | - | 217 W/m² | - |
| 1777816284 | 13.33° C | 58% | 1018.9 hPa | 0 mm | - | 51 W/m² | - |
| 1777814466 | 10.56° C | 68% | 1018.9 hPa | 0 mm | - | 55 W/m² | - |
| 1777814163 | 10° C | 70% | 1018.9 hPa | 0 mm | - | 42 W/m² | - |
| 1777813860 | 9.44° C | 72% | 1019.1 hPa | 0 mm | - | 41 W/m² | - |
| 1777813255 | 8.89° C | 74% | 1019.2 hPa | 0 mm | - | 39 W/m² | - |
| 1777811438 | 7.22° C | 78% | 1018.9 hPa | 0 mm | - | 30 W/m² | - |
| 1777811135 | 7.22° C | 76% | 1018.9 hPa | 0 mm | - | 29 W/m² | - |
| 1777810832 | 7.22° C | 78% | 1018.9 hPa | 0 mm | - | 27 W/m² | - |
| 1777810529 | 6.67° C | 77% | 1019 hPa | 0 mm | - | 25 W/m² | - |
| 1777810226 | 6.67° C | 79% | 1019 hPa | 0 mm | - | 24 W/m² | - |
| 1777809922 | 6.67° C | 80% | 1018.9 hPa | 0 mm | - | 22 W/m² | - |
| 1777809015 | 6.11° C | 79% | 1018.9 hPa | 0 mm | - | 17 W/m² | - |
| 1777804472 | 2.78° C | 94% | 1018.4 hPa | 0 mm | - | 0 W/m² | - |
| 1777803866 | 2.78° C | 94% | 1018.7 hPa | 0 mm | - | 0 W/m² | - |
| 1777803561 | 2.78° C | 94% | 1018.8 hPa | 0 mm | - | 0 W/m² | - |
| 1777802955 | 3.33° C | 95% | 1018.8 hPa | 0 mm | - | 0 W/m² | - |
| 1777802654 | 3.33° C | 95% | 1018.8 hPa | 0 mm | - | 0 W/m² | - |
* Rain latest hour (hover to see other rain measurements)
** Current wind speed in m/s (hover to see current wind gust speed)